Eganville, Canada
Current Conditions -  °F | °C
As of 5:41 PM on Friday 28 Nov 2014 (Local Time) from CYWA Reporting Station
Broken Clouds Broken Clouds  
Wind Chill: 19°   Ceiling: 2400
Heat Index: 19°   Visibility: 9mi
Dew Point:   Wind: 2mph
Humidity: 54%   Direction: 310°NW
Pressure: 30.16"   Gusts: NA
Location:  45.53°N, 77.1°W
Report Text: CYWA 282241Z AUTO 31002KT 9SM BKN024 M07/M15 A3016
Loading
Personal Weather Stations






























Interactive Weather Map New forecast layout! Learn more

10-Day Weather Forecast

Advertisements
Track Severe Weather on mobile